createdAt,value
2023-04-03T00:01:04.831Z,-2.15
2023-04-03T00:03:34.826Z,-2.13
2023-04-03T00:06:02.283Z,-2.09
2023-04-03T00:08:31.680Z,-1.95
2023-04-03T00:10:58.835Z,-2.20
2023-04-03T00:13:26.362Z,-2.19
2023-04-03T00:15:53.601Z,-2.35
2023-04-03T00:18:21.002Z,-2.37
2023-04-03T00:20:48.873Z,-2.36
2023-04-03T00:23:16.179Z,-2.38
2023-04-03T00:25:43.839Z,-2.39
2023-04-03T00:28:11.208Z,-2.37
2023-04-03T00:30:38.283Z,-2.41
2023-04-03T00:33:05.489Z,-2.46
2023-04-03T00:35:32.325Z,-2.48
2023-04-03T00:37:59.280Z,-2.54
2023-04-03T00:40:28.586Z,-2.58
2023-04-03T00:43:00.699Z,-2.57
2023-04-03T00:45:40.341Z,-2.53
2023-04-03T00:48:11.263Z,-2.52
2023-04-03T00:50:41.464Z,-2.60
2023-04-03T00:53:17.673Z,-2.55
2023-04-03T00:55:45.515Z,-2.51
2023-04-03T00:58:14.750Z,-2.59
2023-04-03T01:00:45.566Z,-2.61
2023-04-03T01:03:12.520Z,-3.11
2023-04-03T01:05:39.605Z,-2.69
2023-04-03T01:08:07.561Z,-2.74
2023-04-03T01:10:34.466Z,-2.72
2023-04-03T01:13:02.370Z,-2.61
2023-04-03T01:15:36.196Z,-2.58
2023-04-03T01:18:06.048Z,-2.60
2023-04-03T01:20:32.915Z,-2.60
2023-04-03T01:23:03.145Z,-2.54
2023-04-03T01:25:30.661Z,-2.72
2023-04-03T01:27:57.631Z,-2.63
2023-04-03T01:30:31.817Z,-2.71
2023-04-03T01:32:59.045Z,-2.74
2023-04-03T01:35:26.262Z,-2.76
2023-04-03T01:37:53.166Z,-2.79
2023-04-03T01:40:20.109Z,-2.84
2023-04-03T01:42:46.955Z,-2.82
2023-04-03T01:45:13.944Z,-2.82
2023-04-03T01:47:40.932Z,-2.81
2023-04-03T01:50:08.151Z,-2.80
2023-04-03T01:52:34.978Z,-2.82
2023-04-03T01:55:02.004Z,-2.86
2023-04-03T01:57:29.019Z,-2.97
2023-04-03T01:59:56.228Z,-2.96
2023-04-03T02:02:23.129Z,-2.87
2023-04-03T02:04:50.095Z,-2.98
2023-04-03T02:07:17.092Z,-2.75
2023-04-03T02:09:43.961Z,-2.78
2023-04-03T02:12:11.210Z,-2.84
2023-04-03T02:14:38.079Z,-2.91
2023-04-03T02:17:09.808Z,-2.95
2023-04-03T02:19:36.915Z,-3.04
2023-04-03T02:22:04.951Z,-2.85
2023-04-03T02:24:32.102Z,-3.00
2023-04-03T02:26:59.015Z,-2.99
2023-04-03T02:29:26.098Z,-3.44
2023-04-03T02:31:52.966Z,-3.09
2023-04-03T02:34:19.860Z,-3.08
2023-04-03T02:36:46.875Z,-3.09
2023-04-03T02:39:13.777Z,-3.11
2023-04-03T02:41:40.712Z,-3.15
2023-04-03T02:44:08.668Z,-3.07
2023-04-03T02:46:35.623Z,-3.11
2023-04-03T02:49:03.048Z,-3.05
2023-04-03T02:51:30.335Z,-3.15
2023-04-03T02:53:57.274Z,-3.16
2023-04-03T02:56:24.269Z,-3.07
2023-04-03T02:58:51.464Z,-3.03
2023-04-03T03:01:18.234Z,-3.09
2023-04-03T03:03:45.877Z,-3.14
2023-04-03T03:06:16.500Z,-3.17
2023-04-03T03:08:44.250Z,-3.23
2023-04-03T03:11:11.652Z,-3.23
2023-04-03T03:13:39.041Z,-3.29
2023-04-03T03:16:06.815Z,-3.30
2023-04-03T03:18:34.286Z,-3.21
2023-04-03T03:21:02.489Z,-3.12
2023-04-03T03:23:31.437Z,-3.07
2023-04-03T03:26:01.026Z,-3.15
2023-04-03T03:28:28.098Z,-3.23
2023-04-03T03:30:55.079Z,-3.16
2023-04-03T03:33:22.129Z,-3.19
2023-04-03T03:35:48.993Z,-3.25
2023-04-03T03:38:16.042Z,-3.33
2023-04-03T03:40:47.311Z,-3.35
2023-04-03T03:43:14.181Z,-3.31
2023-04-03T03:45:41.550Z,-3.24
2023-04-03T03:48:08.552Z,-3.19
2023-04-03T03:50:35.784Z,-3.20
2023-04-03T03:53:02.748Z,-3.32
2023-04-03T03:55:29.708Z,-3.37
2023-04-03T03:57:56.653Z,-3.43
2023-04-03T04:00:23.826Z,-3.39
2023-04-03T04:02:51.092Z,-3.38
2023-04-03T04:05:18.049Z,-3.39
2023-04-03T04:07:45.342Z,-3.32
2023-04-03T04:10:12.283Z,-3.38
2023-04-03T04:12:39.384Z,-3.39
2023-04-03T04:15:06.905Z,-3.38
2023-04-03T04:17:33.900Z,-3.38
2023-04-03T04:20:00.909Z,-3.33
2023-04-03T04:22:27.813Z,-3.45
2023-04-03T04:24:54.803Z,-3.59
2023-04-03T04:27:21.763Z,-3.51
2023-04-03T04:29:48.690Z,-3.64
2023-04-03T04:32:15.793Z,-3.55
2023-04-03T04:34:42.800Z,-3.51
2023-04-03T04:37:09.670Z,-3.53
2023-04-03T04:39:37.748Z,-3.49
2023-04-03T04:42:04.865Z,-3.39
2023-04-03T04:44:31.864Z,-3.35
2023-04-03T04:46:58.954Z,-3.34
2023-04-03T04:49:25.870Z,-3.30
2023-04-03T04:51:52.748Z,-3.29
2023-04-03T04:54:19.836Z,-3.35
2023-04-03T04:56:46.765Z,-3.46
2023-04-03T04:59:13.826Z,-3.38
2023-04-03T05:01:40.700Z,-3.29
2023-04-03T05:04:07.611Z,-3.29
2023-04-03T05:06:36.323Z,-3.22
2023-04-03T05:09:03.805Z,-3.22
2023-04-03T05:11:31.394Z,-3.00
2023-04-03T05:13:58.510Z,-2.92
2023-04-03T05:16:25.633Z,-2.83
2023-04-03T05:18:52.464Z,-2.91
2023-04-03T05:21:19.878Z,-2.90
2023-04-03T05:23:46.973Z,-2.85
2023-04-03T05:26:13.765Z,-2.69
2023-04-03T05:28:40.665Z,-2.53
2023-04-03T05:31:07.506Z,-2.21
2023-04-03T05:33:34.541Z,-1.82
2023-04-03T05:36:08.164Z,-1.55
2023-04-03T05:38:35.818Z,-1.37
2023-04-03T05:41:06.343Z,-1.00
2023-04-03T05:43:34.892Z,0.08
2023-04-03T05:46:01.902Z,0.78
2023-04-03T05:48:29.184Z,1.69
2023-04-03T05:50:57.259Z,2.67
2023-04-03T05:53:28.928Z,3.33
2023-04-03T05:55:55.991Z,3.39
2023-04-03T05:58:22.985Z,3.26
2023-04-03T06:00:50.252Z,3.49
2023-04-03T06:03:18.154Z,4.29
2023-04-03T06:05:45.818Z,5.57
2023-04-03T06:08:12.638Z,6.53
2023-04-03T06:10:40.570Z,7.60
2023-04-03T06:13:08.437Z,9.14
2023-04-03T06:15:35.420Z,11.27
2023-04-03T06:18:02.465Z,11.87
2023-04-03T06:20:29.662Z,11.66
2023-04-03T06:22:56.601Z,11.71
2023-04-03T06:25:23.484Z,12.32
2023-04-03T06:27:53.557Z,13.24
2023-04-03T06:30:20.727Z,14.41
2023-04-03T06:32:47.771Z,16.11
2023-04-03T06:35:14.822Z,17.37
2023-04-03T06:37:41.872Z,17.94
2023-04-03T06:40:23.319Z,18.04
2023-04-03T06:42:50.936Z,17.41
2023-04-03T06:45:18.486Z,16.80
2023-04-03T06:47:46.524Z,16.84
2023-04-03T06:50:15.303Z,16.84
2023-04-03T06:52:43.311Z,17.64
2023-04-03T06:55:10.929Z,18.60
2023-04-03T06:57:38.332Z,18.81
2023-04-03T07:00:07.041Z,14.94
2023-04-03T07:02:34.544Z,14.22
2023-04-03T07:05:01.374Z,15.49
2023-04-03T07:07:28.488Z,15.73
2023-04-03T07:09:55.413Z,16.99
2023-04-03T07:12:22.156Z,18.63
2023-04-03T07:14:49.005Z,19.46
2023-04-03T07:17:15.882Z,20.71
2023-04-03T07:19:42.884Z,20.53
2023-04-03T07:22:10.044Z,19.85
2023-04-03T07:24:37.179Z,18.50
2023-04-03T07:27:04.426Z,18.64
2023-04-03T07:29:31.550Z,16.59
2023-04-03T07:31:58.699Z,14.70
2023-04-03T07:34:26.093Z,13.52
2023-04-03T07:36:53.032Z,13.58
2023-04-03T07:39:20.194Z,13.05
2023-04-03T07:41:47.260Z,13.97
2023-04-03T07:44:14.811Z,14.18
2023-04-03T07:46:42.104Z,14.01
2023-04-03T07:49:09.313Z,15.04
2023-04-03T07:51:36.500Z,15.34
2023-04-03T07:54:03.669Z,15.55
2023-04-03T07:56:30.848Z,15.53
2023-04-03T07:58:57.750Z,15.14
2023-04-03T08:01:24.678Z,15.31
2023-04-03T08:03:52.040Z,14.22
2023-04-03T08:06:23.838Z,14.51
2023-04-03T08:09:00.195Z,15.12
2023-04-03T08:11:30.024Z,16.76
2023-04-03T08:13:57.265Z,19.93
2023-04-03T08:16:28.357Z,19.33
2023-04-03T08:18:56.164Z,18.10
2023-04-03T08:21:23.613Z,16.89
2023-04-03T08:23:51.874Z,18.89
2023-04-03T08:26:21.863Z,21.39
2023-04-03T08:28:49.848Z,22.87
2023-04-03T08:31:20.007Z,22.33
2023-04-03T08:33:47.743Z,19.64
2023-04-03T08:36:32.630Z,18.42
2023-04-03T08:39:02.263Z,17.45
2023-04-03T08:41:47.624Z,17.21
2023-04-03T08:44:19.973Z,16.80
2023-04-03T08:46:47.091Z,17.66
2023-04-03T08:49:25.927Z,19.08
2023-04-03T08:51:53.774Z,21.32
2023-04-03T08:54:32.906Z,25.02
2023-04-03T08:57:04.825Z,25.32
2023-04-03T08:59:35.711Z,26.11
2023-04-03T09:02:17.662Z,29.18
2023-04-03T09:04:44.653Z,30.17
2023-04-03T09:07:24.005Z,27.67
2023-04-03T09:09:52.186Z,29.95
2023-04-03T09:12:29.382Z,29.24
2023-04-03T09:15:12.459Z,29.98
2023-04-03T09:17:45.429Z,28.68
2023-04-03T09:20:27.080Z,28.73
2023-04-03T09:22:55.156Z,28.86
2023-04-03T09:25:32.074Z,31.34
2023-04-03T09:28:00.776Z,33.79
2023-04-03T09:30:28.678Z,29.38
2023-04-03T09:32:58.169Z,26.27
2023-04-03T09:35:47.178Z,25.74
2023-04-03T09:38:15.437Z,30.08
2023-04-03T09:40:47.156Z,32.33
2023-04-03T09:43:22.006Z,34.90
2023-04-03T09:45:50.376Z,35.17
2023-04-03T09:48:20.591Z,34.46
2023-04-03T09:51:02.911Z,35.57
2023-04-03T09:53:44.157Z,32.31
2023-04-03T09:56:17.080Z,33.41
2023-04-03T09:59:14.228Z,36.51
2023-04-03T10:01:43.440Z,38.80
2023-04-03T10:04:18.045Z,39.65
2023-04-03T10:06:49.169Z,40.21
2023-04-03T10:09:30.125Z,42.21
2023-04-03T10:12:15.798Z,36.83
2023-04-03T10:15:02.351Z,35.13
2023-04-03T10:18:17.949Z,35.15
2023-04-03T10:20:54.076Z,34.55
2023-04-03T10:23:38.325Z,27.94
2023-04-03T10:26:27.843Z,22.48
2023-04-03T10:29:13.042Z,19.23
2023-04-03T10:31:49.881Z,25.17
2023-04-03T10:34:22.556Z,29.66
2023-04-03T10:36:52.457Z,25.20
2023-04-03T10:39:33.997Z,23.68
2023-04-03T10:42:16.794Z,31.03
2023-04-03T10:45:05.413Z,23.85
2023-04-03T10:47:56.949Z,18.34
2023-04-03T10:50:39.774Z,16.24
2023-04-03T10:53:16.079Z,15.08
2023-04-03T10:56:03.734Z,14.73
2023-04-03T10:58:35.817Z,14.47
2023-04-03T11:01:10.263Z,15.29
2023-04-03T11:03:42.215Z,17.38
2023-04-03T11:06:13.822Z,16.48
2023-04-03T11:08:50.725Z,22.26
2023-04-03T11:11:29.035Z,27.77
2023-04-03T11:14:17.634Z,31.12
2023-04-03T11:16:54.343Z,29.63
2023-04-03T11:19:28.722Z,32.99
2023-04-03T11:22:13.744Z,32.10
2023-04-03T11:24:43.921Z,29.97
2023-04-03T11:27:19.532Z,29.99
2023-04-03T11:29:48.135Z,26.57
2023-04-03T11:32:28.520Z,26.67
2023-04-03T11:35:00.364Z,28.37
2023-04-03T11:37:37.069Z,31.67
2023-04-03T11:40:27.797Z,25.38
2023-04-03T11:43:08.962Z,21.15
2023-04-03T11:45:56.098Z,18.84
2023-04-03T11:48:35.029Z,16.20
2023-04-03T11:51:03.960Z,15.21
2023-04-03T11:53:40.421Z,14.51
2023-04-03T11:56:25.912Z,13.20
2023-04-03T11:59:04.673Z,12.55
2023-04-03T12:01:50.137Z,12.89
2023-04-03T12:04:21.898Z,16.49
2023-04-03T12:06:50.033Z,20.50
2023-04-03T12:09:46.068Z,16.39
2023-04-03T12:12:35.881Z,14.38
2023-04-03T12:15:26.406Z,12.99
2023-04-03T12:17:53.522Z,15.80
2023-04-03T12:20:58.916Z,18.96
2023-04-03T12:23:32.131Z,15.22
2023-04-03T12:26:06.375Z,14.25
2023-04-03T12:28:56.809Z,12.98
2023-04-03T12:31:26.740Z,12.19
2023-04-03T12:34:10.447Z,11.06
2023-04-03T12:36:51.515Z,10.82
2023-04-03T12:39:26.118Z,12.60
2023-04-03T12:41:56.289Z,13.89
2023-04-03T12:44:47.699Z,14.05
2023-04-03T12:47:24.272Z,12.53
2023-04-03T12:49:52.888Z,11.74
2023-04-03T12:52:34.455Z,10.77
2023-04-03T12:55:05.154Z,10.30
2023-04-03T12:57:33.694Z,9.64
2023-04-03T13:00:01.365Z,9.87
2023-04-03T13:02:29.631Z,10.67
2023-04-03T13:04:59.603Z,11.72
2023-04-03T13:07:45.629Z,12.36
2023-04-03T13:10:19.445Z,12.06
2023-04-03T13:12:58.494Z,12.45
2023-04-03T13:15:29.415Z,13.40
2023-04-03T13:17:56.913Z,14.27
2023-04-03T13:20:23.979Z,14.73
2023-04-03T13:22:57.178Z,14.28
2023-04-03T13:25:27.466Z,13.92
2023-04-03T13:28:03.342Z,12.86
2023-04-03T13:30:41.617Z,11.46
2023-04-03T13:33:25.416Z,10.11
2023-04-03T13:36:20.123Z,10.13
2023-04-03T13:38:47.295Z,10.55
2023-04-03T13:41:37.867Z,11.17
2023-04-03T13:44:23.283Z,10.97
2023-04-03T13:46:55.555Z,12.04
2023-04-03T13:49:56.576Z,11.95
2023-04-03T13:52:27.797Z,11.24
2023-04-03T13:54:59.833Z,10.67
2023-04-03T13:57:27.906Z,10.33
2023-04-03T13:59:54.858Z,10.67
2023-04-03T14:02:31.362Z,11.19
2023-04-03T14:05:02.658Z,11.01
2023-04-03T14:07:31.005Z,10.38
2023-04-03T14:09:59.811Z,10.19
2023-04-03T14:12:40.555Z,9.83
2023-04-03T14:15:24.897Z,9.91
2023-04-03T14:17:52.963Z,9.41
2023-04-03T14:20:23.429Z,9.78
2023-04-03T14:22:50.580Z,9.70
2023-04-03T14:25:18.071Z,9.30
2023-04-03T14:27:48.784Z,8.93
2023-04-03T14:30:23.808Z,8.71
2023-04-03T14:32:51.320Z,8.38
2023-04-03T14:35:19.859Z,8.35
2023-04-03T14:37:48.671Z,8.43
2023-04-03T14:40:28.372Z,8.36
2023-04-03T14:42:56.626Z,9.29
2023-04-03T14:45:23.600Z,10.05
2023-04-03T14:47:53.684Z,10.77
2023-04-03T14:50:24.082Z,11.11
2023-04-03T14:52:55.237Z,10.67
2023-04-03T14:55:24.497Z,10.53
2023-04-03T14:57:52.028Z,10.34
2023-04-03T15:00:21.432Z,10.12
2023-04-03T15:02:49.230Z,9.14
2023-04-03T15:05:17.112Z,8.35
2023-04-03T15:07:50.305Z,8.24
2023-04-03T15:10:22.139Z,7.98
2023-04-03T15:12:50.094Z,7.78
2023-04-03T15:15:21.012Z,8.07
2023-04-03T15:17:55.156Z,8.39
2023-04-03T15:20:25.675Z,8.73
2023-04-03T15:22:52.624Z,9.25
2023-04-03T15:25:20.076Z,9.87
2023-04-03T15:27:46.934Z,10.48
2023-04-03T15:30:18.747Z,11.02
2023-04-03T15:32:46.242Z,10.59
2023-04-03T15:35:13.438Z,9.99
2023-04-03T15:37:43.145Z,9.98
2023-04-03T15:40:14.147Z,9.71
2023-04-03T15:42:41.759Z,8.78
2023-04-03T15:45:09.477Z,8.16
2023-04-03T15:47:36.757Z,8.02
2023-04-03T15:50:07.073Z,7.66
2023-04-03T15:52:34.279Z,7.24
2023-04-03T15:55:01.030Z,7.25
2023-04-03T15:57:28.098Z,7.22
2023-04-03T15:59:55.427Z,7.65
2023-04-03T16:02:22.658Z,7.89
2023-04-03T16:04:50.084Z,8.07
2023-04-03T16:07:17.100Z,7.81
2023-04-03T16:09:43.948Z,7.48
2023-04-03T16:12:11.153Z,7.27
2023-04-03T16:14:38.179Z,6.96
2023-04-03T16:17:05.081Z,6.65
2023-04-03T16:19:32.066Z,6.60
2023-04-03T16:21:59.299Z,6.59
2023-04-03T16:24:26.366Z,6.46
2023-04-03T16:26:54.580Z,6.55
2023-04-03T16:29:22.224Z,6.56
2023-04-03T16:31:49.349Z,6.40
2023-04-03T16:34:17.232Z,6.18
2023-04-03T16:36:44.211Z,6.15
2023-04-03T16:39:11.230Z,6.05
2023-04-03T16:41:40.571Z,6.24
2023-04-03T16:44:08.556Z,6.40
2023-04-03T16:46:35.608Z,6.42
2023-04-03T16:49:02.590Z,6.34
2023-04-03T16:51:29.475Z,6.21
2023-04-03T16:53:56.649Z,6.12
2023-04-03T16:56:23.652Z,5.94
2023-04-03T16:58:50.567Z,5.78
2023-04-03T17:01:19.791Z,5.54
2023-04-03T17:03:47.323Z,5.42
2023-04-03T17:06:20.352Z,5.39
2023-04-03T17:08:49.492Z,5.34
2023-04-03T17:11:16.482Z,5.32
2023-04-03T17:13:46.324Z,5.20
2023-04-03T17:16:15.909Z,5.07
2023-04-03T17:18:43.933Z,4.96
2023-04-03T17:21:11.768Z,4.83
2023-04-03T17:23:40.774Z,4.73
2023-04-03T17:26:07.964Z,4.57
2023-04-03T17:28:34.977Z,4.59
2023-04-03T17:31:03.621Z,4.51
2023-04-03T17:33:34.148Z,4.37
2023-04-03T17:36:02.755Z,4.36
2023-04-03T17:38:29.847Z,4.19
2023-04-03T17:40:58.938Z,4.11
2023-04-03T17:43:26.289Z,4.04
2023-04-03T17:45:53.445Z,3.98
2023-04-03T17:48:21.046Z,3.81
2023-04-03T17:50:48.137Z,3.82
2023-04-03T17:53:15.633Z,3.69
2023-04-03T17:55:42.476Z,3.56
2023-04-03T17:58:09.423Z,3.52
2023-04-03T18:00:37.353Z,3.45
2023-04-03T18:03:04.966Z,3.40
2023-04-03T18:05:32.344Z,3.33
2023-04-03T18:08:01.284Z,3.16
2023-04-03T18:10:28.724Z,3.13
2023-04-03T18:12:56.465Z,3.07
2023-04-03T18:15:25.732Z,2.89
2023-04-03T18:17:56.846Z,2.80
2023-04-03T18:20:24.418Z,3.00
2023-04-03T18:22:52.878Z,2.99
2023-04-03T18:25:22.769Z,2.90
2023-04-03T18:27:49.902Z,2.95
2023-04-03T18:30:18.550Z,2.68
2023-04-03T18:32:45.568Z,2.67
2023-04-03T18:35:12.987Z,2.69
2023-04-03T18:37:40.016Z,2.59
2023-04-03T18:40:07.673Z,2.44
2023-04-03T18:42:39.894Z,2.47
2023-04-03T18:45:07.934Z,2.52
2023-04-03T18:47:37.082Z,2.37
2023-04-03T18:50:06.966Z,2.34
2023-04-03T18:52:34.368Z,2.36
2023-04-03T18:55:01.416Z,2.27
2023-04-03T18:57:28.493Z,2.09
2023-04-03T18:59:55.512Z,2.26
2023-04-03T19:02:26.241Z,1.95
2023-04-03T19:04:54.289Z,1.72
2023-04-03T19:07:21.517Z,1.81
2023-04-03T19:09:48.753Z,1.86
2023-04-03T19:12:16.661Z,1.78
2023-04-03T19:14:43.556Z,1.63
2023-04-03T19:17:10.482Z,1.64
2023-04-03T19:19:37.421Z,1.57
2023-04-03T19:22:04.658Z,1.59
2023-04-03T19:24:31.585Z,1.53
2023-04-03T19:26:58.529Z,1.64
2023-04-03T19:29:25.689Z,1.32
2023-04-03T19:31:52.804Z,1.40
2023-04-03T19:34:19.821Z,1.53
2023-04-03T19:36:46.870Z,1.40
2023-04-03T19:39:15.559Z,1.36
2023-04-03T19:41:45.224Z,1.23
2023-04-03T19:44:12.863Z,1.29
2023-04-03T19:46:39.927Z,1.19
2023-04-03T19:49:07.286Z,1.23
2023-04-03T19:51:35.215Z,1.20
2023-04-03T19:54:01.976Z,1.04
2023-04-03T19:56:29.329Z,0.99
2023-04-03T19:58:57.032Z,1.06
2023-04-03T20:01:28.279Z,0.92
2023-04-03T20:03:55.180Z,0.83
2023-04-03T20:06:22.349Z,0.80
2023-04-03T20:08:49.776Z,0.82
2023-04-03T20:11:16.938Z,1.13
2023-04-03T20:13:44.025Z,0.97
2023-04-03T20:16:11.337Z,0.91
2023-04-03T20:18:39.720Z,0.75
2023-04-03T20:21:07.745Z,0.76
2023-04-03T20:23:37.340Z,0.46
2023-04-03T20:26:11.201Z,0.49
2023-04-03T20:28:42.799Z,0.52
2023-04-03T20:31:10.308Z,0.45
2023-04-03T20:33:37.862Z,0.50
2023-04-03T20:36:04.972Z,0.36
2023-04-03T20:38:32.112Z,0.12
2023-04-03T20:41:00.435Z,0.27
2023-04-03T20:43:28.562Z,0.20
2023-04-03T20:45:55.821Z,0.27
2023-04-03T20:48:25.859Z,0.07
2023-04-03T20:50:53.302Z,0.11
2023-04-03T20:53:21.125Z,0.09
2023-04-03T20:56:00.408Z,0.02
2023-04-03T20:58:30.623Z,0.01
2023-04-03T21:00:57.950Z,0.00
2023-04-03T21:03:26.580Z,-0.09
2023-04-03T21:06:02.199Z,0.04
2023-04-03T21:09:07.063Z,0.02
2023-04-03T21:12:12.212Z,-0.14
2023-04-03T21:15:16.678Z,-0.32
2023-04-03T21:18:09.189Z,-0.50
2023-04-03T21:20:37.403Z,-0.59
2023-04-03T21:23:05.679Z,-0.61
2023-04-03T21:25:35.780Z,-0.60
2023-04-03T21:28:04.404Z,-0.57
2023-04-03T21:30:31.838Z,-0.55
2023-04-03T21:32:59.070Z,-0.63
2023-04-03T21:35:26.300Z,-0.73
2023-04-03T21:37:53.379Z,-1.27
2023-04-03T21:40:20.350Z,-0.97
2023-04-03T21:42:47.454Z,-1.05
2023-04-03T21:45:16.335Z,-1.19
2023-04-03T21:47:44.148Z,-1.26
2023-04-03T21:50:11.739Z,-1.37
2023-04-03T21:52:38.614Z,-1.33
2023-04-03T21:55:05.910Z,-1.47
2023-04-03T21:57:32.947Z,-1.47
2023-04-03T22:00:00.609Z,-1.48
2023-04-03T22:02:28.006Z,-1.51
2023-04-03T22:04:55.828Z,-1.55
2023-04-03T22:07:22.920Z,-1.55
2023-04-03T22:09:49.788Z,-1.48
2023-04-03T22:12:16.593Z,-1.44
2023-04-03T22:14:43.788Z,-1.43
2023-04-03T22:17:10.697Z,-1.48
2023-04-03T22:19:37.667Z,-1.57
2023-04-03T22:22:04.818Z,-1.63
2023-04-03T22:24:32.399Z,-1.67
2023-04-03T22:26:59.217Z,-1.61
2023-04-03T22:29:26.083Z,-1.56
2023-04-03T22:31:53.016Z,-1.50
2023-04-03T22:34:20.764Z,-1.54
2023-04-03T22:36:47.828Z,-1.57
2023-04-03T22:39:16.619Z,-1.60
2023-04-03T22:41:45.415Z,-1.63
2023-04-03T22:44:12.984Z,-1.71
2023-04-03T22:46:40.290Z,-1.81
2023-04-03T22:49:07.761Z,-1.77
2023-04-03T22:51:34.506Z,-1.82
2023-04-03T22:54:01.564Z,-1.82
2023-04-03T22:56:28.449Z,-1.94
2023-04-03T22:58:57.231Z,-1.84
2023-04-03T23:01:25.375Z,-1.82
2023-04-03T23:03:52.276Z,-1.79
2023-04-03T23:06:19.239Z,-1.85
2023-04-03T23:08:47.932Z,-1.91
2023-04-03T23:11:14.989Z,-1.94
2023-04-03T23:13:43.826Z,-1.90
2023-04-03T23:16:10.751Z,-1.83
2023-04-03T23:18:40.034Z,-1.80
2023-04-03T23:21:08.664Z,-1.78
2023-04-03T23:23:35.661Z,-1.82
2023-04-03T23:26:02.897Z,-1.84
2023-04-03T23:28:30.387Z,-1.91
2023-04-03T23:31:04.080Z,-1.94
2023-04-03T23:33:32.552Z,-2.00
2023-04-03T23:36:00.953Z,-2.00
2023-04-03T23:38:27.900Z,-2.03
2023-04-03T23:40:54.668Z,-2.13
2023-04-03T23:43:21.846Z,-2.17
2023-04-03T23:45:48.914Z,-2.12
2023-04-03T23:48:16.160Z,-2.12
2023-04-03T23:50:44.226Z,-2.08
2023-04-03T23:53:13.576Z,-2.14
2023-04-03T23:55:41.152Z,-2.26
2023-04-03T23:58:08.189Z,-2.28
